Time;durP1;ratioP1;P1;durP2;ratioP2;P2;SDS_P1;SDS_P2;PMS_P1;PMS_P2;Temp;Humidity;BMP_temperature;BMP_pressure;BME280_temperature;BME280_humidity;BME280_pressure;Samples;Min_cycle;Max_cycle;Signal;HPM_P1;HPM_P2
2023/04/24 00:00:25;;;;;;;1.50;1.25;;;;;;;;;;7369307;19;20035;-75
2023/04/24 00:02:50;;;;;;;4.55;1.42;;;;;;;;;;7369849;19;20017;-75
2023/04/24 00:05:17;;;;;;;2.05;1.50;;;;;;;;;;7370735;19;20006;-75
2023/04/24 00:07:45;;;;;;;1.88;1.40;;;;;;;;;;7369265;19;20009;-75
2023/04/24 00:10:11;;;;;;;3.25;1.65;;;;;;;;;;7394819;19;20003;-76
2023/04/24 00:12:37;;;;;;;3.55;1.35;;;;;;;;;;7369396;19;20510;-75
2023/04/24 00:15:03;;;;;;;2.65;1.40;;;;;;;;;;7369916;19;20014;-75
2023/04/24 00:17:28;;;;;;;3.13;1.55;;;;;;;;;;7372290;19;20052;-75
2023/04/24 00:20:00;;;;;;;1.98;1.35;;;;;;;;;;7373914;19;20019;-76
2023/04/24 00:22:27;;;;;;;2.28;1.30;;;;;;;;;;7394160;19;20119;-75
2023/04/24 00:24:53;;;;;;;2.03;1.40;;;;;;;;;;7368706;19;20014;-75
2023/04/24 00:27:18;;;;;;;3.47;1.55;;;;;;;;;;7366067;19;20007;-75
2023/04/24 00:29:44;;;;;;;3.45;1.38;;;;;;;;;;7370920;19;20013;-75
2023/04/24 00:32:09;;;;;;;2.42;1.48;;;;;;;;;;7368224;19;20010;-75
2023/04/24 00:34:34;;;;;;;2.25;1.40;;;;;;;;;;7393562;19;20005;-75
2023/04/24 00:37:00;;;;;;;2.53;1.50;;;;;;;;;;7366611;19;20003;-75
2023/04/24 00:39:26;;;;;;;2.90;1.40;;;;;;;;;;7368063;19;20019;-75
2023/04/24 00:41:52;;;;;;;3.38;1.40;;;;;;;;;;7368793;19;20092;-75
2023/04/24 00:44:17;;;;;;;3.25;1.30;;;;;;;;;;7368201;19;20010;-75
2023/04/24 00:46:43;;;;;;;1.65;1.33;;;;;;;;;;7365922;19;20007;-75
2023/04/24 00:49:08;;;;;;;2.38;1.30;;;;;;;;;;7391250;19;19994;-77
2023/04/24 00:51:34;;;;;;;1.48;1.20;;;;;;;;;;7370128;19;20006;-77
2023/04/24 00:54:00;;;;;;;2.63;1.45;;;;;;;;;;7368732;19;20119;-76
2023/04/24 00:56:26;;;;;;;2.85;1.33;;;;;;;;;;7374406;19;20074;-77
2023/04/24 00:58:52;;;;;;;2.58;1.33;;;;;;;;;;7373023;19;20002;-76
2023/04/24 01:01:20;;;;;;;1.70;1.23;;;;;;;;;;7391621;19;20026;-76
2023/04/24 01:03:46;;;;;;;1.45;1.30;;;;;;;;;;7366602;19;20006;-76
2023/04/24 01:06:12;;;;;;;2.22;1.42;;;;;;;;;;7366048;19;20016;-76
2023/04/24 01:08:39;;;;;;;2.67;1.20;;;;;;;;;;7369339;19;20003;-76
2023/04/24 01:11:06;;;;;;;4.53;1.58;;;;;;;;;;7370301;19;20007;-76
2023/04/24 01:13:32;;;;;;;2.50;1.27;;;;;;;;;;7389120;19;20360;-76
2023/04/24 01:15:58;;;;;;;3.08;1.40;;;;;;;;;;7369400;19;20032;-76
2023/04/24 01:18:24;;;;;;;5.10;1.48;;;;;;;;;;7369213;19;20038;-77
2023/04/24 01:20:52;;;;;;;3.03;1.60;;;;;;;;;;7366922;19;20010;-76
2023/04/24 01:23:18;;;;;;;4.00;1.67;;;;;;;;;;7367371;19;20006;-76
2023/04/24 01:25:44;;;;;;;3.10;1.70;;;;;;;;;;7366414;19;20432;-76
2023/04/24 01:28:09;;;;;;;3.40;1.70;;;;;;;;;;7386609;19;20013;-76
2023/04/24 01:30:35;;;;;;;3.75;1.60;;;;;;;;;;7365824;19;20042;-76
2023/04/24 01:33:01;;;;;;;3.60;1.70;;;;;;;;;;7366945;19;20020;-76
2023/04/24 01:35:26;;;;;;;5.88;1.60;;;;;;;;;;7366486;19;20014;-76
2023/04/24 01:37:51;;;;;;;2.50;1.50;;;;;;;;;;7363383;19;20064;-76
2023/04/24 01:40:17;;;;;;;2.50;1.38;;;;;;;;;;7387165;19;20062;-76
2023/04/24 01:42:42;;;;;;;1.85;1.30;;;;;;;;;;7368912;19;20003;-76
2023/04/24 01:45:10;;;;;;;4.63;1.42;;;;;;;;;;7365792;19;20012;-76
2023/04/24 01:47:36;;;;;;;2.25;1.48;;;;;;;;;;7365119;19;20045;-75
2023/04/24 01:50:02;;;;;;;2.70;1.45;;;;;;;;;;7366176;19;20002;-76
2023/04/24 01:52:30;;;;;;;4.28;1.70;;;;;;;;;;7387166;19;20498;-76
2023/04/24 01:54:58;;;;;;;4.82;1.60;;;;;;;;;;7368987;19;20010;-76
2023/04/24 01:57:24;;;;;;;3.28;1.42;;;;;;;;;;7375127;19;20003;-76
2023/04/24 01:59:50;;;;;;;2.53;1.48;;;;;;;;;;7374806;19;20073;-75
2023/04/24 02:02:16;;;;;;;2.40;1.58;;;;;;;;;;7371321;19;20014;-75
2023/04/24 02:04:41;;;;;;;3.83;1.77;;;;;;;;;;7365842;19;20026;-75
2023/04/24 02:07:06;;;;;;;6.45;1.88;;;;;;;;;;7386343;19;19999;-76
2023/04/24 02:09:32;;;;;;;6.00;1.70;;;;;;;;;;7366790;19;20003;-76
2023/04/24 02:11:57;;;;;;;1.73;1.40;;;;;;;;;;7369066;19;20010;-76
2023/04/24 02:14:22;;;;;;;1.88;1.35;;;;;;;;;;7370204;19;20013;-76
2023/04/24 02:16:47;;;;;;;1.77;1.48;;;;;;;;;;7370422;19;20013;-76
2023/04/24 02:19:13;;;;;;;4.38;1.60;;;;;;;;;;7386779;19;20002;-76
2023/04/24 02:21:38;;;;;;;3.67;1.38;;;;;;;;;;7365748;19;20027;-76
2023/04/24 02:24:04;;;;;;;5.55;1.65;;;;;;;;;;7370730;19;20011;-76
2023/04/24 02:26:31;;;;;;;2.53;1.70;;;;;;;;;;7368543;19;20027;-76
2023/04/24 02:28:57;;;;;;;2.53;1.65;;;;;;;;;;7370354;19;19998;-76
2023/04/24 02:31:22;;;;;;;4.22;1.60;;;;;;;;;;7386872;19;20004;-76
2023/04/24 02:33:47;;;;;;;3.63;1.50;;;;;;;;;;7369894;19;20010;-76
2023/04/24 02:36:13;;;;;;;3.22;1.40;;;;;;;;;;7370363;19;20021;-76
2023/04/24 02:38:39;;;;;;;3.80;1.50;;;;;;;;;;7370697;19;20445;-76
2023/04/24 02:41:06;;;;;;;2.33;1.33;;;;;;;;;;7370562;19;20063;-76
2023/04/24 02:43:31;;;;;;;2.28;1.40;;;;;;;;;;7396894;19;19995;-76
2023/04/24 02:45:57;;;;;;;3.55;1.55;;;;;;;;;;7366497;19;20059;-75
2023/04/24 02:48:23;;;;;;;3.10;1.52;;;;;;;;;;7364135;19;20041;-76
2023/04/24 02:50:48;;;;;;;2.67;1.50;;;;;;;;;;7371615;19;20915;-76
2023/04/24 02:53:14;;;;;;;1.38;1.27;;;;;;;;;;7371533;19;20054;-76
2023/04/24 02:55:39;;;;;;;1.77;1.30;;;;;;;;;;7371884;19;20672;-76
2023/04/24 02:58:05;;;;;;;1.63;1.27;;;;;;;;;;7393104;19;19998;-76
2023/04/24 03:00:31;;;;;;;4.30;1.42;;;;;;;;;;7371081;19;20006;-76
2023/04/24 03:02:56;;;;;;;1.45;1.10;;;;;;;;;;7370671;19;20109;-76
2023/04/24 03:05:22;;;;;;;2.17;1.42;;;;;;;;;;7373189;19;20006;-76
2023/04/24 03:07:47;;;;;;;3.17;1.58;;;;;;;;;;7371896;19;20006;-76
2023/04/24 03:10:13;;;;;;;2.08;1.52;;;;;;;;;;7397921;19;19994;-76
2023/04/24 03:12:38;;;;;;;1.83;1.20;;;;;;;;;;7371141;19;20011;-76
2023/04/24 03:15:04;;;;;;;2.72;1.40;;;;;;;;;;7372111;19;20686;-76
2023/04/24 03:17:29;;;;;;;3.53;1.45;;;;;;;;;;7372849;19;20009;-76
2023/04/24 03:19:55;;;;;;;1.40;1.25;;;;;;;;;;7371208;19;20015;-76
2023/04/24 03:22:20;;;;;;;2.85;1.52;;;;;;;;;;7394251;19;20003;-76
2023/04/24 03:24:45;;;;;;;2.88;1.40;;;;;;;;;;7399445;19;20006;-75
2023/04/24 03:27:11;;;;;;;1.40;1.25;;;;;;;;;;7401551;19;20487;-76
2023/04/24 03:29:36;;;;;;;2.10;1.20;;;;;;;;;;7395906;19;20010;-76
2023/04/24 03:32:01;;;;;;;2.00;1.40;;;;;;;;;;7371322;19;20006;-76
2023/04/24 03:34:27;;;;;;;4.20;1.45;;;;;;;;;;7392480;19;19999;-76
2023/04/24 03:36:52;;;;;;;2.17;1.40;;;;;;;;;;7368241;19;20119;-76
2023/04/24 03:39:17;;;;;;;3.97;1.33;;;;;;;;;;7369568;19;20002;-76
2023/04/24 03:41:43;;;;;;;2.67;1.40;;;;;;;;;;7370005;19;20003;-76
2023/04/24 03:44:08;;;;;;;2.50;1.42;;;;;;;;;;7370374;19;20048;-76
2023/04/24 03:46:33;;;;;;;2.45;1.58;;;;;;;;;;7389519;19;20552;-76
2023/04/24 03:48:59;;;;;;;2.95;1.52;;;;;;;;;;7373383;19;20040;-76
2023/04/24 03:51:25;;;;;;;3.25;1.55;;;;;;;;;;7375134;19;20049;-76
2023/04/24 03:53:50;;;;;;;2.25;1.60;;;;;;;;;;7374005;19;20006;-76
2023/04/24 03:56:16;;;;;;;1.80;1.50;;;;;;;;;;7370030;19;20011;-76
2023/04/24 03:58:42;;;;;;;3.45;1.60;;;;;;;;;;7370727;19;20036;-76
2023/04/24 04:01:07;;;;;;;1.98;1.45;;;;;;;;;;7389970;19;20003;-76
2023/04/24 04:03:32;;;;;;;2.38;1.77;;;;;;;;;;7370570;19;20021;-76
2023/04/24 04:05:58;;;;;;;2.28;1.65;;;;;;;;;;7372304;19;20007;-76
2023/04/24 04:08:23;;;;;;;2.10;1.70;;;;;;;;;;7370856;19;20042;-76
2023/04/24 04:10:48;;;;;;;2.53;1.88;;;;;;;;;;7372177;19;20002;-77
2023/04/24 04:13:14;;;;;;;3.67;1.90;;;;;;;;;;7391254;19;20009;-77
2023/04/24 04:15:40;;;;;;;2.53;1.90;;;;;;;;;;7368565;19;20006;-75
2023/04/24 04:18:05;;;;;;;3.47;1.90;;;;;;;;;;7370645;19;20480;-77
2023/04/24 04:20:30;;;;;;;5.85;2.03;;;;;;;;;;7372055;19;20016;-77
2023/04/24 04:22:56;;;;;;;2.78;1.85;;;;;;;;;;7371575;19;19999;-77
2023/04/24 04:25:21;;;;;;;4.18;2.22;;;;;;;;;;7392028;19;19999;-77
2023/04/24 04:27:50;;;;;;;5.85;2.20;;;;;;;;;;7373609;19;20006;-76
2023/04/24 04:30:16;;;;;;;6.05;2.15;;;;;;;;;;7369621;19;20442;-76
2023/04/24 04:32:41;;;;;;;6.78;3.00;;;;;;;;;;7370827;19;20006;-76
2023/04/24 04:35:07;;;;;;;4.78;2.38;;;;;;;;;;7372419;19;20031;-75
2023/04/24 04:37:33;;;;;;;4.72;2.30;;;;;;;;;;7391367;19;20023;-77
2023/04/24 04:39:59;;;;;;;3.35;2.17;;;;;;;;;;7368004;19;20006;-75
2023/04/24 04:42:26;;;;;;;5.88;2.30;;;;;;;;;;7367638;19;20330;-76
2023/04/24 04:44:52;;;;;;;5.15;2.30;;;;;;;;;;7371957;19;20016;-76
2023/04/24 04:47:18;;;;;;;6.45;2.15;;;;;;;;;;7371490;19;20370;-76
2023/04/24 04:49:43;;;;;;;3.53;2.15;;;;;;;;;;7371617;19;20003;-76
2023/04/24 04:52:09;;;;;;;3.78;2.40;;;;;;;;;;7389903;19;20475;-76
2023/04/24 04:54:35;;;;;;;4.40;2.38;;;;;;;;;;7364968;19;20007;-76
2023/04/24 04:57:00;;;;;;;6.78;2.40;;;;;;;;;;7364333;19;20026;-76
2023/04/24 04:59:26;;;;;;;3.15;2.20;;;;;;;;;;7364748;19;20083;-76
2023/04/24 05:01:52;;;;;;;3.70;2.33;;;;;;;;;;7367091;19;20034;-76
2023/04/24 05:04:17;;;;;;;3.00;2.00;;;;;;;;;;7390106;19;20009;-76
2023/04/24 05:06:42;;;;;;;4.35;2.28;;;;;;;;;;7363060;19;20640;-75
2023/04/24 05:09:07;;;;;;;4.55;2.30;;;;;;;;;;7366483;19;20006;-76
2023/04/24 05:11:33;;;;;;;5.15;2.42;;;;;;;;;;7369417;19;20019;-76
2023/04/24 05:13:58;;;;;;;4.68;2.50;;;;;;;;;;7367880;19;20089;-75
2023/04/24 05:16:24;;;;;;;4.53;2.70;;;;;;;;;;7391366;19;20457;-75
2023/04/24 05:18:49;;;;;;;6.85;2.40;;;;;;;;;;7369815;19;20010;-75
2023/04/24 05:21:14;;;;;;;3.85;2.47;;;;;;;;;;7368013;19;20058;-75
2023/04/24 05:23:40;;;;;;;5.50;2.72;;;;;;;;;;7367550;19;20003;-75
2023/04/24 05:26:05;;;;;;;4.40;2.53;;;;;;;;;;7365972;19;20006;-74
2023/04/24 05:28:31;;;;;;;4.60;2.35;;;;;;;;;;7387591;19;20009;-75
2023/04/24 05:30:56;;;;;;;5.32;2.60;;;;;;;;;;7365436;19;20002;-75
2023/04/24 05:33:22;;;;;;;3.85;2.30;;;;;;;;;;7366400;19;20084;-75
2023/04/24 05:35:48;;;;;;;4.07;2.38;;;;;;;;;;7369019;19;20015;-75
2023/04/24 05:38:14;;;;;;;4.95;2.58;;;;;;;;;;7364188;19;20006;-75
2023/04/24 05:40:39;;;;;;;5.88;2.40;;;;;;;;;;7366968;19;20591;-75
2023/04/24 05:43:05;;;;;;;3.90;2.40;;;;;;;;;;7391548;19;20020;-74
2023/04/24 05:45:31;;;;;;;3.83;2.50;;;;;;;;;;7367502;19;20428;-76
2023/04/24 05:47:56;;;;;;;4.15;2.30;;;;;;;;;;7368498;19;20011;-75
2023/04/24 05:50:22;;;;;;;4.55;2.30;;;;;;;;;;7368903;19;20095;-76
2023/04/24 05:52:47;;;;;;;5.28;2.50;;;;;;;;;;7374036;19;20009;-75
2023/04/24 05:55:13;;;;;;;4.63;2.60;;;;;;;;;;7394599;19;20357;-76
2023/04/24 05:57:38;;;;;;;4.20;2.38;;;;;;;;;;7365354;19;20023;-75
2023/04/24 06:00:05;;;;;;;4.68;2.83;;;;;;;;;;7368845;19;20504;-76
2023/04/24 06:02:32;;;;;;;5.10;2.47;;;;;;;;;;7367543;19;20027;-75
2023/04/24 06:04:59;;;;;;;4.00;2.55;;;;;;;;;;7371442;19;20113;-71
2023/04/24 06:07:26;;;;;;;3.65;2.15;;;;;;;;;;7390604;19;19995;-75
2023/04/24 06:09:51;;;;;;;4.93;3.05;;;;;;;;;;7370158;19;20010;-74
2023/04/24 06:12:17;;;;;;;3.88;2.47;;;;;;;;;;7372849;19;19999;-75
2023/04/24 06:14:42;;;;;;;4.38;2.63;;;;;;;;;;7376882;19;20094;-73
2023/04/24 06:17:08;;;;;;;5.88;2.58;;;;;;;;;;7377655;19;20015;-72
2023/04/24 06:19:33;;;;;;;6.82;2.70;;;;;;;;;;7395136;19;20002;-73
2023/04/24 06:21:58;;;;;;;5.72;2.80;;;;;;;;;;7368541;19;20006;-72
2023/04/24 06:24:27;;;;;;;5.10;2.90;;;;;;;;;;7364281;19;20089;-71
2023/04/24 06:26:52;;;;;;;10.63;6.40;;;;;;;;;;7371019;19;20003;-71
2023/04/24 06:29:18;;;;;;;17.67;8.55;;;;;;;;;;7381694;19;20031;-73
2023/04/24 06:31:43;;;;;;;7.05;4.20;;;;;;;;;;7388546;19;19995;-72
2023/04/24 06:34:08;;;;;;;4.80;2.92;;;;;;;;;;7408009;19;20360;-72
2023/04/24 06:36:35;;;;;;;5.57;3.13;;;;;;;;;;7377494;19;20010;-73
2023/04/24 06:39:00;;;;;;;6.05;2.88;;;;;;;;;;7375783;19;20002;-72
2023/04/24 06:41:26;;;;;;;5.97;3.17;;;;;;;;;;7375596;19;20509;-73
2023/04/24 06:43:51;;;;;;;5.80;3.40;;;;;;;;;;7374243;19;20061;-71
2023/04/24 06:46:17;;;;;;;6.55;3.30;;;;;;;;;;7394878;19;19999;-71
2023/04/24 06:48:42;;;;;;;7.03;3.58;;;;;;;;;;7372271;19;20093;-71
2023/04/24 06:51:07;;;;;;;7.30;3.38;;;;;;;;;;7383068;19;20002;-71
2023/04/24 06:53:33;;;;;;;6.10;3.13;;;;;;;;;;7378125;19;20073;-70
2023/04/24 06:55:58;;;;;;;5.72;3.03;;;;;;;;;;7377801;19;20472;-70
2023/04/24 06:58:25;;;;;;;20.08;3.50;;;;;;;;;;7396734;19;20343;-70
2023/04/24 07:00:50;;;;;;;5.90;2.90;;;;;;;;;;7373462;19;20006;-70
2023/04/24 07:03:16;;;;;;;5.93;2.90;;;;;;;;;;7372881;19;20519;-70
2023/04/24 07:05:41;;;;;;;6.57;3.30;;;;;;;;;;7375357;19;20010;-69
2023/04/24 07:08:06;;;;;;;5.90;3.08;;;;;;;;;;7371474;19;20522;-70
2023/04/24 07:10:35;;;;;;;6.32;3.00;;;;;;;;;;7397646;19;20007;-70
2023/04/24 07:13:01;;;;;;;6.70;2.95;;;;;;;;;;7374377;19;19998;-73
2023/04/24 07:15:26;;;;;;;5.70;2.75;;;;;;;;;;7373822;19;20441;-73
2023/04/24 07:17:52;;;;;;;4.72;3.08;;;;;;;;;;7373513;19;19998;-72
2023/04/24 07:20:17;;;;;;;5.35;2.53;;;;;;;;;;7375179;19;20006;-70
2023/04/24 07:22:43;;;;;;;6.10;3.08;;;;;;;;;;7399336;19;19995;-70
2023/04/24 07:25:08;;;;;;;4.57;2.90;;;;;;;;;;7412759;19;19994;-70
2023/04/24 07:27:34;;;;;;;6.30;3.03;;;;;;;;;;7382421;19;20009;-69
2023/04/24 07:30:00;;;;;;;5.70;2.83;;;;;;;;;;7374518;19;20019;-70
2023/04/24 07:32:25;;;;;;;6.05;2.80;;;;;;;;;;7373288;19;20074;-70
2023/04/24 07:34:51;;;;;;;5.07;3.00;;;;;;;;;;7371453;19;20026;-71
2023/04/24 07:37:16;;;;;;;3.97;2.50;;;;;;;;;;7391203;19;20490;-72
2023/04/24 07:39:42;;;;;;;4.88;2.45;;;;;;;;;;7373664;19;20002;-71
2023/04/24 07:42:07;;;;;;;6.07;2.50;;;;;;;;;;7374933;19;20018;-70
2023/04/24 07:44:32;;;;;;;3.88;2.58;;;;;;;;;;7369887;19;20030;-70
2023/04/24 07:46:58;;;;;;;6.05;2.42;;;;;;;;;;7370434;19;20007;-73
2023/04/24 07:49:23;;;;;;;5.53;2.58;;;;;;;;;;7393354;19;20003;-70
2023/04/24 07:51:49;;;;;;;4.55;2.30;;;;;;;;;;7371546;19;20511;-71
2023/04/24 07:54:15;;;;;;;5.53;2.60;;;;;;;;;;7372781;19;20006;-70
2023/04/24 07:56:42;;;;;;;4.97;2.40;;;;;;;;;;7371343;19;20002;-70
2023/04/24 07:59:09;;;;;;;3.25;2.28;;;;;;;;;;7374242;19;20002;-72
2023/04/24 08:01:35;;;;;;;3.10;2.17;;;;;;;;;;7394601;19;19997;-72
2023/04/24 08:04:00;;;;;;;5.00;2.67;;;;;;;;;;7373524;19;20002;-72
2023/04/24 08:06:30;;;;;;;4.63;2.65;;;;;;;;;;7371358;19;20802;-76
2023/04/24 08:08:58;;;;;;;5.57;2.50;;;;;;;;;;7372805;19;20495;-76
2023/04/24 08:11:24;;;;;;;4.82;2.50;;;;;;;;;;7373244;19;20349;-76
2023/04/24 08:13:49;;;;;;;4.63;2.45;;;;;;;;;;7375006;19;20001;-75
2023/04/24 08:16:15;;;;;;;5.95;2.50;;;;;;;;;;7394703;19;20516;-76
2023/04/24 08:18:40;;;;;;;4.93;2.83;;;;;;;;;;7372938;19;19995;-76
2023/04/24 08:21:06;;;;;;;4.70;2.63;;;;;;;;;;7376987;19;20290;-75
2023/04/24 08:23:31;;;;;;;4.57;2.42;;;;;;;;;;7373835;19;20005;-76
2023/04/24 08:25:57;;;;;;;5.55;2.45;;;;;;;;;;7372719;19;20406;-72
2023/04/24 08:28:23;;;;;;;5.85;2.58;;;;;;;;;;7393050;19;19994;-73
2023/04/24 08:30:48;;;;;;;3.95;2.45;;;;;;;;;;7376397;19;20380;-80
2023/04/24 08:33:14;;;;;;;4.50;2.30;;;;;;;;;;7373021;19;19999;-76
2023/04/24 08:35:40;;;;;;;3.67;2.40;;;;;;;;;;7374165;19;20002;-75
2023/04/24 08:38:05;;;;;;;3.88;2.33;;;;;;;;;;7369762;19;20041;-76
2023/04/24 08:40:33;;;;;;;3.95;2.35;;;;;;;;;;7395829;19;20018;-76
2023/04/24 08:43:00;;;;;;;4.30;2.42;;;;;;;;;;7377410;19;20032;-71
2023/04/24 08:45:25;;;;;;;4.88;2.50;;;;;;;;;;7368660;19;20003;-72
2023/04/24 08:47:53;;;;;;;5.40;2.58;;;;;;;;;;7370415;19;19999;-72
2023/04/24 08:50:19;;;;;;;6.22;2.50;;;;;;;;;;7369006;19;20082;-71
2023/04/24 08:52:44;;;;;;;5.55;2.30;;;;;;;;;;7371438;19;19998;-76
2023/04/24 08:55:10;;;;;;;4.00;2.40;;;;;;;;;;7392456;19;19991;-78
2023/04/24 08:57:38;;;;;;;4.32;2.70;;;;;;;;;;7375926;19;20030;-79
2023/04/24 09:00:04;;;;;;;4.35;2.50;;;;;;;;;;7377751;19;20439;-79
2023/04/24 09:02:31;;;;;;;4.20;2.58;;;;;;;;;;7369947;19;20015;-76
2023/04/24 09:04:57;;;;;;;4.47;2.50;;;;;;;;;;7371928;19;19996;-77
2023/04/24 09:07:25;;;;;;;4.10;2.20;;;;;;;;;;7392059;19;20171;-76
2023/04/24 09:09:51;;;;;;;3.55;2.38;;;;;;;;;;7371467;19;20744;-76
2023/04/24 09:12:17;;;;;;;4.60;2.28;;;;;;;;;;7372938;19;20018;-76
2023/04/24 09:14:44;;;;;;;5.22;2.50;;;;;;;;;;7371654;19;20082;-76
2023/04/24 09:17:10;;;;;;;4.78;2.42;;;;;;;;;;7370052;19;20108;-75
2023/04/24 09:19:36;;;;;;;5.40;2.47;;;;;;;;;;7388431;19;20011;-76
2023/04/24 09:22:05;;;;;;;7.07;2.20;;;;;;;;;;7380579;19;20540;-76
2023/04/24 09:24:30;;;;;;;4.05;2.35;;;;;;;;;;7376473;19;20330;-78
2023/04/24 09:26:58;;;;;;;5.00;1.98;;;;;;;;;;7373563;19;20044;-76
2023/04/24 09:29:24;;;;;;;3.38;2.03;;;;;;;;;;7371361;19;20003;-75
2023/04/24 09:31:49;;;;;;;3.75;1.80;;;;;;;;;;7367663;19;20008;-75
2023/04/24 09:34:22;;;;;;;4.25;2.10;;;;;;;;;;7400541;19;20011;-78
2023/04/24 09:36:47;;;;;;;2.72;1.90;;;;;;;;;;7390383;19;20002;-77
2023/04/24 09:39:15;;;;;;;4.43;2.13;;;;;;;;;;7385019;19;20032;-77
2023/04/24 09:41:54;;;;;;;4.55;1.90;;;;;;;;;;7391800;19;20010;-77
2023/04/24 09:44:24;;;;;;;3.70;1.90;;;;;;;;;;7384081;19;20007;-75
2023/04/24 09:46:57;;;;;;;2.53;1.80;;;;;;;;;;7371104;19;20002;-74
2023/04/24 09:49:24;;;;;;;2.92;1.92;;;;;;;;;;7395870;19;20002;-74
2023/04/24 09:51:50;;;;;;;4.15;2.17;;;;;;;;;;7369851;19;20368;-74
2023/04/24 09:54:17;;;;;;;4.90;2.05;;;;;;;;;;7369808;19;20006;-74
2023/04/24 09:56:47;;;;;;;4.22;2.33;;;;;;;;;;7369824;19;20006;-74
2023/04/24 09:59:14;;;;;;;4.65;2.25;;;;;;;;;;7369959;19;20022;-74
2023/04/24 10:01:42;;;;;;;5.75;2.05;;;;;;;;;;7370050;19;20014;-78
2023/04/24 10:04:18;;;;;;;3.83;2.03;;;;;;;;;;7406485;19;20011;-76
2023/04/24 10:06:44;;;;;;;5.22;2.30;;;;;;;;;;7367696;19;20056;-75
2023/04/24 10:09:11;;;;;;;2.78;1.88;;;;;;;;;;7370478;19;20003;-75
2023/04/24 10:11:38;;;;;;;3.08;1.92;;;;;;;;;;7372767;19;20021;-75
2023/04/24 10:14:03;;;;;;;4.55;2.10;;;;;;;;;;7370531;19;20035;-76
2023/04/24 10:16:30;;;;;;;3.63;2.15;;;;;;;;;;7394273;19;19995;-75
2023/04/24 10:18:58;;;;;;;4.15;2.00;;;;;;;;;;7382192;19;20403;-75
2023/04/24 10:21:23;;;;;;;4.35;2.10;;;;;;;;;;7396083;19;20014;-74
2023/04/24 10:23:50;;;;;;;5.65;2.20;;;;;;;;;;7393508;19;20003;-75
2023/04/24 10:26:17;;;;;;;4.35;2.22;;;;;;;;;;7374091;19;20010;-75
2023/04/24 10:28:47;;;;;;;3.33;2.00;;;;;;;;;;7368128;19;19999;-76
2023/04/24 10:31:13;;;;;;;2.75;1.95;;;;;;;;;;7391384;19;20467;-63
2023/04/24 10:33:41;;;;;;;3.22;2.20;;;;;;;;;;7368704;19;20093;-73
2023/04/24 10:36:09;;;;;;;2.97;1.90;;;;;;;;;;7366998;19;19994;-73
2023/04/24 10:38:35;;;;;;;4.50;2.15;;;;;;;;;;7366664;19;20015;-72
2023/04/24 10:41:22;;;;;;;6.07;2.17;;;;;;;;;;7368158;19;20019;-72
2023/04/24 10:43:50;;;;;;;3.85;2.20;;;;;;;;;;7363775;19;20002;-71
2023/04/24 10:46:21;;;;;;;4.35;2.10;;;;;;;;;;7384870;19;20003;-71
2023/04/24 10:48:54;;;;;;;2.70;1.70;;;;;;;;;;7367751;19;20398;-71
2023/04/24 10:51:22;;;;;;;2.67;1.95;;;;;;;;;;7365971;19;20007;-72
2023/04/24 10:53:49;;;;;;;4.43;1.80;;;;;;;;;;7368257;19;20003;-70
2023/04/24 10:56:16;;;;;;;1.98;1.50;;;;;;;;;;7365565;19;20002;-68
2023/04/24 10:58:46;;;;;;;4.90;1.83;;;;;;;;;;7369867;19;20002;-68
2023/04/24 11:01:23;;;;;;;2.55;1.60;;;;;;;;;;7396616;19;20003;-68
2023/04/24 11:03:57;;;;;;;2.22;1.63;;;;;;;;;;7376823;19;20007;-68
2023/04/24 11:06:34;;;;;;;1.88;1.55;;;;;;;;;;7370104;19;20007;-67
2023/04/24 11:09:07;;;;;;;2.58;1.50;;;;;;;;;;7368742;19;20003;-69
2023/04/24 11:11:34;;;;;;;1.48;1.38;;;;;;;;;;7368586;19;20787;-68
2023/04/24 11:14:00;;;;;;;1.50;1.33;;;;;;;;;;7375406;19;20010;-68
2023/04/24 11:16:34;;;;;;;1.58;1.30;;;;;;;;;;7395213;19;20015;-68
2023/04/24 11:19:07;;;;;;;1.42;1.27;;;;;;;;;;7377439;19;20409;-68
2023/04/24 11:21:46;;;;;;;1.95;1.40;;;;;;;;;;7387504;19;20003;-68
2023/04/24 11:24:40;;;;;;;1.52;1.40;;;;;;;;;;7386448;19;20006;-68
2023/04/24 11:27:09;;;;;;;2.17;1.60;;;;;;;;;;7376590;19;20324;-68
2023/04/24 11:29:56;;;;;;;2.45;1.40;;;;;;;;;;7372199;19;20023;-68
2023/04/24 11:32:37;;;;;;;2.80;1.40;;;;;;;;;;7372245;19;20019;-68
2023/04/24 11:35:07;;;;;;;1.90;1.40;;;;;;;;;;7373781;19;20010;-69
2023/04/24 11:37:38;;;;;;;1.63;1.40;;;;;;;;;;7393595;19;20336;-68
2023/04/24 11:40:05;;;;;;;1.52;1.40;;;;;;;;;;7374172;19;20014;-68
2023/04/24 11:42:38;;;;;;;1.70;1.33;;;;;;;;;;7372834;19;20085;-68
2023/04/24 11:45:21;;;;;;;1.58;1.30;;;;;;;;;;7373368;19;20003;-68
2023/04/24 11:47:47;;;;;;;2.67;1.40;;;;;;;;;;7369402;19;20014;-68
2023/04/24 11:50:15;;;;;;;2.25;1.63;;;;;;;;;;7371176;19;20074;-68
2023/04/24 11:52:42;;;;;;;3.47;1.75;;;;;;;;;;7380647;19;20006;-68
2023/04/24 11:55:22;;;;;;;3.05;1.70;;;;;;;;;;7404575;19;20463;-68
2023/04/24 11:57:51;;;;;;;2.60;1.75;;;;;;;;;;7375951;19;20395;-68
2023/04/24 12:00:19;;;;;;;3.92;1.88;;;;;;;;;;7372523;19;20082;-69
2023/04/24 12:02:44;;;;;;;3.50;2.22;;;;;;;;;;7370970;19;20014;-68
2023/04/24 12:05:22;;;;;;;4.05;2.15;;;;;;;;;;7373823;19;20013;-68
2023/04/24 12:07:48;;;;;;;4.53;1.88;;;;;;;;;;7368270;19;20023;-69
2023/04/24 12:10:14;;;;;;;3.88;2.95;;;;;;;;;;7392419;19;20003;-68
2023/04/24 12:12:39;;;;;;;4.38;2.35;;;;;;;;;;7372962;19;20141;-68
2023/04/24 12:15:09;;;;;;;5.55;2.10;;;;;;;;;;7373356;19;20014;-68
2023/04/24 12:17:36;;;;;;;5.13;2.00;;;;;;;;;;7371170;19;20007;-68
2023/04/24 12:20:06;;;;;;;4.90;2.65;;;;;;;;;;7370649;19;19999;-69
2023/04/24 12:22:53;;;;;;;4.65;2.40;;;;;;;;;;7392463;19;20005;-68
2023/04/24 12:25:19;;;;;;;3.60;2.42;;;;;;;;;;7377135;19;20006;-68
2023/04/24 12:27:46;;;;;;;6.18;2.28;;;;;;;;;;7373440;19;20003;-68
2023/04/24 12:30:14;;;;;;;6.18;2.42;;;;;;;;;;7372337;19;20372;-69
2023/04/24 12:32:47;;;;;;;5.85;2.40;;;;;;;;;;7371398;19;20382;-69
2023/04/24 12:35:13;;;;;;;4.03;2.10;;;;;;;;;;7372311;19;20107;-69
2023/04/24 12:37:42;;;;;;;4.82;2.67;;;;;;;;;;7367887;19;20508;-69
2023/04/24 12:40:10;;;;;;;4.07;2.30;;;;;;;;;;7391700;19;20007;-68
2023/04/24 12:42:41;;;;;;;4.60;2.40;;;;;;;;;;7370974;19;20111;-68
2023/04/24 12:45:07;;;;;;;7.40;2.70;;;;;;;;;;7371608;19;20027;-68
2023/04/24 12:47:34;;;;;;;6.15;2.95;;;;;;;;;;7371215;19;20544;-68
2023/04/24 12:50:00;;;;;;;4.72;2.28;;;;;;;;;;7369569;19;20539;-69
2023/04/24 12:52:28;;;;;;;5.38;2.65;;;;;;;;;;7392648;19;20010;-68
2023/04/24 12:54:55;;;;;;;7.50;2.95;;;;;;;;;;7374187;19;20014;-69
2023/04/24 12:57:22;;;;;;;6.28;2.83;;;;;;;;;;7367930;19;20015;-69
2023/04/24 12:59:47;;;;;;;5.43;2.50;;;;;;;;;;7370143;19;20035;-69
2023/04/24 13:02:13;;;;;;;12.77;2.50;;;;;;;;;;7369010;19;20424;-68
2023/04/24 13:04:38;;;;;;;6.43;2.80;;;;;;;;;;7373911;19;20040;-68
2023/04/24 13:07:04;;;;;;;4.95;2.70;;;;;;;;;;7398307;19;20704;-67
2023/04/24 13:09:30;;;;;;;5.00;2.70;;;;;;;;;;7369751;19;20003;-67
2023/04/24 13:11:56;;;;;;;5.03;2.75;;;;;;;;;;7371831;19;20019;-68
2023/04/24 13:14:22;;;;;;;5.90;3.00;;;;;;;;;;7373127;19;20010;-68
2023/04/24 13:16:48;;;;;;;5.05;2.42;;;;;;;;;;7373029;19;20035;-68
2023/04/24 13:19:13;;;;;;;5.15;2.85;;;;;;;;;;7411406;19;20010;-68
2023/04/24 13:21:38;;;;;;;7.15;2.63;;;;;;;;;;7382824;19;20018;-71
2023/04/24 13:24:04;;;;;;;4.93;2.45;;;;;;;;;;7378811;19;20003;-71
2023/04/24 13:26:30;;;;;;;5.70;2.78;;;;;;;;;;7375886;19;19999;-71
2023/04/24 13:28:55;;;;;;;6.07;2.67;;;;;;;;;;7374929;19;20014;-70
2023/04/24 13:31:21;;;;;;;7.22;2.80;;;;;;;;;;7375930;19;20010;-70
2023/04/24 13:33:46;;;;;;;6.65;2.97;;;;;;;;;;7392751;19;19999;-70
2023/04/24 13:36:12;;;;;;;7.03;3.05;;;;;;;;;;7374626;19;20006;-71
2023/04/24 13:38:37;;;;;;;5.80;2.85;;;;;;;;;;7371122;19;20674;-70
2023/04/24 13:41:03;;;;;;;6.25;3.30;;;;;;;;;;7374956;19;20005;-71
2023/04/24 13:43:28;;;;;;;5.25;2.92;;;;;;;;;;7370226;19;20444;-70
2023/04/24 13:45:53;;;;;;;5.03;2.78;;;;;;;;;;7391647;19;20070;-70
2023/04/24 13:48:19;;;;;;;4.80;2.70;;;;;;;;;;7367349;19;20006;-70
2023/04/24 13:50:44;;;;;;;5.47;2.80;;;;;;;;;;7368575;19;19991;-70
2023/04/24 13:53:11;;;;;;;4.53;2.55;;;;;;;;;;7369917;19;20065;-69
2023/04/24 13:55:38;;;;;;;5.55;2.70;;;;;;;;;;7367025;19;20080;-70
2023/04/24 13:58:04;;;;;;;6.30;2.80;;;;;;;;;;7388333;19;20016;-70
2023/04/24 14:00:30;;;;;;;5.75;2.65;;;;;;;;;;7367449;19;20014;-70
2023/04/24 14:02:56;;;;;;;8.70;2.70;;;;;;;;;;7365652;19;20018;-70
2023/04/24 14:05:21;;;;;;;6.10;2.90;;;;;;;;;;7367324;19;20600;-70
2023/04/24 14:07:47;;;;;;;5.85;2.78;;;;;;;;;;7366661;19;20007;-70
2023/04/24 14:10:12;;;;;;;6.63;2.83;;;;;;;;;;7389573;19;19995;-71
2023/04/24 14:12:38;;;;;;;5.00;2.58;;;;;;;;;;7369594;19;20067;-71
2023/04/24 14:15:04;;;;;;;6.03;2.85;;;;;;;;;;7366918;19;20018;-70
2023/04/24 14:17:30;;;;;;;6.20;3.05;;;;;;;;;;7366650;19;20084;-70
2023/04/24 14:19:56;;;;;;;5.30;2.60;;;;;;;;;;7371894;19;20036;-71
2023/04/24 14:22:22;;;;;;;5.72;2.78;;;;;;;;;;7377346;19;20002;-75
2023/04/24 14:24:47;;;;;;;8.05;3.28;;;;;;;;;;7399506;19;19998;-71
2023/04/24 14:27:12;;;;;;;10.57;3.17;;;;;;;;;;7368048;19;20026;-60
2023/04/24 14:29:38;;;;;;;5.30;2.90;;;;;;;;;;7367729;19;19998;-60
2023/04/24 14:32:03;;;;;;;9.02;3.00;;;;;;;;;;7367773;19;20010;-60
2023/04/24 14:34:28;;;;;;;6.45;3.00;;;;;;;;;;7364984;19;20010;-61
2023/04/24 14:36:54;;;;;;;5.10;2.60;;;;;;;;;;7388311;19;20093;-60
2023/04/24 14:39:20;;;;;;;5.85;2.72;;;;;;;;;;7367746;19;20082;-58